KBIF/BIF METAR and TAF weather

Enter ICAO airport designator
Station Type Date Time Source
KBIF METAR 2019/08/25 01:58 UTC NOAA

KBIF 250158Z AUTO 23005KT 10SM CLR 31/10 A2999 RMK AO2 SLP087 T03130100 $


Station Type Date Time Source
KBIF Decoded METAR 2019/08/25 01:58 UTC NOAA

Station name not available
Aug 24, 2019 - 09:58 PM EDT / 2019.08.25 0158 UTC
Wind: from the SW (230 degrees) at 6 MPH (5 KT):0
Visibility: 10 mile(s):0
Sky conditions: clear
Temperature: 88.3 F (31.3 C)
Dew Point: 50.0 F (10.0 C)
Relative Humidity: 26%
Pressure (altimeter): 29.99 in. Hg (1015 hPa)
ob: KBIF 250158Z AUTO 23005KT 10SM CLR 31/10 A2999 RMK AO2 SLP087 T03130100
cycle: 2

Station Type Date Time Source
KBIF TAF 2019/08/24 23:04 UTC NOAA

TAF
AMD KBIF 232359Z 2323/2504 30012KT 9999 SCT080 BKN150 QNH2990INS
TEMPO 2323/2401 VRB15G35KT -TSRA BKN080CB
BECMG 2401/2402 20009KT 9999 SCT080 BKN150 QNH3008INS
BECMG 2417/2418 21012G18KT 9999 FEW060 BKN250 QNH3005INS
BECMG 2423/2424 20009KT 9999 SCT080 BKN250 QNH3005INS TX27/2323Z TN14/2412Z

Example: see airport list